createdAt,value
2017-12-26T00:00:29.384Z,12.68
2017-12-26T00:02:58.483Z,12.77
2017-12-26T00:05:31.026Z,12.32
2017-12-26T00:08:00.210Z,14.43
2017-12-26T00:10:29.333Z,12.95
2017-12-26T00:12:59.332Z,12.50
2017-12-26T00:15:28.488Z,13.80
2017-12-26T00:17:57.766Z,13.55
2017-12-26T00:20:28.292Z,14.07
2017-12-26T00:22:57.587Z,13.82
2017-12-26T00:25:26.702Z,13.60
2017-12-26T00:27:55.898Z,11.50
2017-12-26T00:30:25.039Z,12.88
2017-12-26T00:32:54.174Z,14.20
2017-12-26T00:35:25.266Z,14.50
2017-12-26T00:37:54.479Z,14.68
2017-12-26T00:40:23.662Z,13.13
2017-12-26T00:42:53.254Z,12.88
2017-12-26T00:45:22.490Z,14.90
2017-12-26T00:47:51.610Z,13.57
2017-12-26T00:50:20.852Z,13.25
2017-12-26T00:52:50.312Z,13.65
2017-12-26T00:55:19.758Z,13.07
2017-12-26T00:57:49.015Z,12.98
2017-12-26T01:00:18.970Z,14.18
2017-12-26T01:02:48.218Z,13.85
2017-12-26T01:05:17.607Z,12.88
2017-12-26T01:07:46.829Z,12.63
2017-12-26T01:10:16.036Z,13.73
2017-12-26T01:12:45.723Z,10.85
2017-12-26T01:15:14.926Z,12.27
2017-12-26T01:17:44.247Z,10.85
2017-12-26T01:20:14.752Z,11.10
2017-12-26T01:22:43.980Z,10.23
2017-12-26T01:25:15.916Z,11.30
2017-12-26T01:27:46.041Z,10.60
2017-12-26T01:30:15.301Z,12.77
2017-12-26T01:32:44.515Z,9.70
2017-12-26T01:35:13.750Z,9.07
2017-12-26T01:37:42.992Z,11.30
2017-12-26T01:40:13.353Z,11.05
2017-12-26T01:42:42.496Z,8.82
2017-12-26T01:45:11.615Z,8.73
2017-12-26T01:47:41.839Z,8.50
2017-12-26T01:50:10.993Z,8.65
2017-12-26T01:52:40.113Z,7.72
2017-12-26T01:55:09.705Z,9.52
2017-12-26T01:57:38.852Z,7.68
2017-12-26T02:00:07.966Z,7.15
2017-12-26T02:02:37.138Z,9.25
2017-12-26T02:05:07.213Z,8.75
2017-12-26T02:07:36.362Z,8.30
2017-12-26T02:10:06.777Z,8.55
2017-12-26T02:12:35.880Z,7.45
2017-12-26T02:15:05.052Z,7.93
2017-12-26T02:17:34.872Z,6.28
2017-12-26T02:20:04.773Z,7.62
2017-12-26T02:22:34.687Z,8.45
2017-12-26T02:25:03.878Z,6.53
2017-12-26T02:27:32.982Z,6.20
2017-12-26T02:30:02.078Z,6.25
2017-12-26T02:32:31.296Z,5.90
2017-12-26T02:35:00.414Z,6.68
2017-12-26T02:37:29.530Z,5.18
2017-12-26T02:39:59.482Z,5.40
2017-12-26T02:42:28.575Z,6.28
2017-12-26T02:44:57.699Z,8.32
2017-12-26T02:47:27.604Z,5.87
2017-12-26T02:49:56.698Z,5.05
2017-12-26T02:52:25.802Z,4.40
2017-12-26T02:54:54.954Z,5.22
2017-12-26T02:57:24.051Z,5.10
2017-12-26T02:59:53.186Z,4.32
2017-12-26T03:02:23.127Z,4.85
2017-12-26T03:04:52.979Z,4.93
2017-12-26T03:07:22.071Z,5.12
2017-12-26T03:09:51.222Z,4.10
2017-12-26T03:12:20.398Z,3.67
2017-12-26T03:14:50.595Z,4.93
2017-12-26T03:17:20.127Z,5.05
2017-12-26T03:19:50.022Z,4.12
2017-12-26T03:22:19.251Z,3.90
2017-12-26T03:24:49.728Z,4.25
2017-12-26T03:27:18.891Z,4.05
2017-12-26T03:29:48.049Z,4.28
2017-12-26T03:32:17.567Z,5.00
2017-12-26T03:34:46.762Z,4.80
2017-12-26T03:37:15.998Z,4.57
2017-12-26T03:39:45.270Z,4.68
2017-12-26T03:42:14.550Z,4.53
2017-12-26T03:44:44.408Z,4.97
2017-12-26T03:47:14.495Z,5.70
2017-12-26T03:49:43.691Z,10.07
2017-12-26T03:52:12.882Z,5.65
2017-12-26T03:54:42.082Z,6.32
2017-12-26T03:57:11.250Z,4.80
2017-12-26T03:59:40.363Z,5.40
2017-12-26T04:02:10.304Z,4.80
2017-12-26T04:04:39.403Z,6.53
2017-12-26T04:07:08.547Z,5.53
2017-12-26T04:09:39.434Z,4.93
2017-12-26T04:12:08.532Z,4.65
2017-12-26T04:14:37.634Z,5.45
2017-12-26T04:17:07.414Z,5.20
2017-12-26T04:19:36.521Z,5.75
2017-12-26T04:22:05.621Z,5.10
2017-12-26T04:24:35.154Z,5.35
2017-12-26T04:27:05.011Z,4.95
2017-12-26T04:29:34.134Z,4.35
2017-12-26T04:32:03.357Z,5.78
2017-12-26T04:34:32.449Z,5.53
2017-12-26T04:37:01.561Z,5.53
2017-12-26T04:39:31.418Z,5.62
2017-12-26T04:42:00.554Z,5.50
2017-12-26T04:44:29.675Z,5.50
2017-12-26T04:46:59.470Z,4.80
2017-12-26T04:49:28.579Z,5.85
2017-12-26T04:51:57.702Z,5.00
2017-12-26T04:54:27.407Z,4.37
2017-12-26T04:56:56.522Z,5.30
2017-12-26T04:59:25.634Z,5.50
2017-12-26T05:01:55.614Z,5.43
2017-12-26T05:04:24.789Z,5.53
2017-12-26T05:06:54.022Z,5.82
2017-12-26T05:09:23.219Z,6.25
2017-12-26T05:11:53.122Z,5.45
2017-12-26T05:14:22.425Z,5.45
2017-12-26T05:16:51.950Z,6.20
2017-12-26T05:19:21.136Z,5.57
2017-12-26T05:21:50.346Z,6.07
2017-12-26T05:24:21.553Z,7.30
2017-12-26T05:26:51.505Z,5.68
2017-12-26T05:29:20.790Z,5.68
2017-12-26T05:31:50.610Z,6.18
2017-12-26T05:34:19.910Z,6.40
2017-12-26T05:36:50.019Z,5.12
2017-12-26T05:39:20.054Z,6.20
2017-12-26T05:41:49.341Z,6.18
2017-12-26T05:44:18.555Z,4.95
2017-12-26T05:46:47.843Z,5.12
2017-12-26T05:49:17.046Z,5.68
2017-12-26T05:51:46.277Z,7.15
2017-12-26T05:54:16.263Z,6.12
2017-12-26T05:56:46.358Z,6.32
2017-12-26T05:59:16.625Z,5.25
2017-12-26T06:01:45.986Z,5.50
2017-12-26T06:04:15.206Z,5.90
2017-12-26T06:06:44.478Z,5.87
2017-12-26T06:09:14.915Z,5.45
2017-12-26T06:11:44.961Z,5.22
2017-12-26T06:14:14.265Z,5.68
2017-12-26T06:16:44.664Z,5.40
2017-12-26T06:19:13.884Z,4.60
2017-12-26T06:21:43.064Z,5.97
2017-12-26T06:24:12.311Z,6.25
2017-12-26T06:26:41.434Z,5.20
2017-12-26T06:29:10.557Z,4.87
2017-12-26T06:31:39.696Z,4.25
2017-12-26T06:34:08.791Z,6.05
2017-12-26T06:36:38.703Z,5.07
2017-12-26T06:39:08.920Z,4.72
2017-12-26T06:41:38.045Z,5.55
2017-12-26T06:44:07.932Z,6.20
2017-12-26T06:46:37.173Z,5.32
2017-12-26T06:49:06.308Z,5.35
2017-12-26T06:51:36.242Z,5.45
2017-12-26T06:54:05.406Z,6.07
2017-12-26T06:56:34.528Z,6.80
2017-12-26T06:59:03.674Z,5.62
2017-12-26T07:01:33.691Z,5.20
2017-12-26T07:04:03.558Z,5.57
2017-12-26T07:06:32.654Z,4.95
2017-12-26T07:09:02.417Z,6.30
2017-12-26T07:11:31.560Z,5.75
2017-12-26T07:14:00.683Z,6.72
2017-12-26T07:16:30.779Z,6.12
2017-12-26T07:18:59.940Z,5.40
2017-12-26T07:21:35.647Z,6.70
2017-12-26T07:24:05.362Z,6.18
2017-12-26T07:26:34.465Z,5.10
2017-12-26T07:29:04.191Z,5.85
2017-12-26T07:31:33.312Z,6.15
2017-12-26T07:34:02.414Z,6.90
2017-12-26T07:36:31.544Z,6.00
2017-12-26T07:39:00.645Z,6.80
2017-12-26T07:41:29.740Z,6.68
2017-12-26T07:43:59.629Z,6.28
2017-12-26T07:46:28.733Z,5.53
2017-12-26T07:48:57.834Z,5.93
2017-12-26T07:51:27.210Z,5.68
2017-12-26T07:53:56.336Z,6.32
2017-12-26T07:56:26.263Z,6.75
2017-12-26T07:58:56.186Z,5.60
2017-12-26T08:01:25.362Z,6.50
2017-12-26T08:03:55.283Z,6.07
2017-12-26T08:06:24.738Z,7.12
2017-12-26T08:08:53.876Z,6.50
2017-12-26T08:11:23.048Z,7.40
2017-12-26T08:13:54.418Z,6.30
2017-12-26T08:16:23.574Z,6.70
2017-12-26T08:18:52.714Z,5.90
2017-12-26T08:21:21.927Z,6.10
2017-12-26T08:23:51.200Z,6.72
2017-12-26T08:26:20.419Z,6.60
2017-12-26T08:28:49.992Z,7.00
2017-12-26T08:31:19.219Z,6.55
2017-12-26T08:33:49.250Z,7.10
2017-12-26T08:36:18.519Z,7.07
2017-12-26T08:38:47.699Z,7.68
2017-12-26T08:41:17.006Z,7.55
2017-12-26T08:43:47.225Z,6.90
2017-12-26T08:46:16.466Z,6.70
2017-12-26T08:48:45.753Z,7.07
2017-12-26T08:51:16.196Z,6.80
2017-12-26T08:53:45.475Z,6.65
2017-12-26T08:56:15.502Z,7.05
2017-12-26T08:58:45.528Z,7.05
2017-12-26T09:01:14.756Z,7.75
2017-12-26T09:03:45.020Z,6.97
2017-12-26T09:06:14.388Z,7.30
2017-12-26T09:08:44.532Z,7.60
2017-12-26T09:11:14.693Z,5.15
2017-12-26T09:13:43.989Z,7.05
2017-12-26T09:16:13.156Z,7.57
2017-12-26T09:18:43.119Z,7.55
2017-12-26T09:21:12.288Z,7.18
2017-12-26T09:23:41.439Z,6.85
2017-12-26T09:26:11.359Z,6.70
2017-12-26T09:28:42.475Z,7.12
2017-12-26T09:31:12.685Z,7.05
2017-12-26T09:33:41.852Z,7.18
2017-12-26T09:36:11.803Z,6.43
2017-12-26T09:38:40.969Z,6.35
2017-12-26T09:41:10.140Z,7.05
2017-12-26T09:43:40.114Z,6.35
2017-12-26T09:46:09.285Z,6.47
2017-12-26T09:48:38.395Z,6.28
2017-12-26T09:51:07.982Z,6.95
2017-12-26T09:53:37.852Z,7.03
2017-12-26T09:56:07.003Z,6.95
2017-12-26T09:58:36.588Z,6.45
2017-12-26T10:01:06.392Z,6.30
2017-12-26T10:03:35.505Z,6.20
2017-12-26T10:06:04.964Z,6.00
2017-12-26T10:08:34.058Z,5.45
2017-12-26T10:11:03.174Z,6.00
2017-12-26T10:13:32.358Z,5.15
2017-12-26T10:16:01.449Z,5.68
2017-12-26T10:18:30.544Z,4.32
2017-12-26T10:21:00.535Z,4.30
2017-12-26T10:23:29.651Z,4.82
2017-12-26T10:25:58.838Z,4.95
2017-12-26T10:28:28.578Z,4.18
2017-12-26T10:30:58.164Z,4.40
2017-12-26T10:33:27.283Z,3.35
2017-12-26T10:35:56.934Z,4.15
2017-12-26T10:38:26.063Z,3.97
2017-12-26T10:40:56.054Z,4.20
2017-12-26T10:43:26.207Z,3.97
2017-12-26T10:45:55.323Z,4.12
2017-12-26T10:48:24.467Z,3.20
2017-12-26T10:50:53.627Z,3.33
2017-12-26T10:53:22.815Z,2.90
2017-12-26T10:55:52.028Z,2.37
2017-12-26T10:58:21.218Z,2.53
2017-12-26T11:00:50.516Z,2.03
2017-12-26T11:03:19.756Z,1.92
2017-12-26T11:05:49.219Z,2.08
2017-12-26T11:08:18.420Z,1.67
2017-12-26T11:10:47.782Z,1.95
2017-12-26T11:13:17.007Z,2.12
2017-12-26T11:15:46.822Z,1.50
2017-12-26T11:18:16.056Z,2.10
2017-12-26T11:20:45.407Z,1.60
2017-12-26T11:23:14.634Z,1.62
2017-12-26T11:25:43.856Z,1.95
2017-12-26T11:28:13.636Z,2.42
2017-12-26T11:30:42.829Z,1.80
2017-12-26T11:33:12.028Z,1.33
2017-12-26T11:35:42.322Z,2.05
2017-12-26T11:38:12.999Z,1.40
2017-12-26T11:40:42.116Z,2.50
2017-12-26T11:43:11.712Z,1.73
2017-12-26T11:45:40.903Z,1.40
2017-12-26T11:48:10.007Z,3.10
2017-12-26T11:50:39.444Z,1.52
2017-12-26T11:53:09.323Z,0.80
2017-12-26T11:55:38.488Z,1.05
2017-12-26T11:58:07.929Z,1.58
2017-12-26T12:00:37.068Z,1.42
2017-12-26T12:03:06.974Z,1.33
2017-12-26T12:05:36.595Z,1.15
2017-12-26T12:08:06.051Z,1.37
2017-12-26T12:10:35.163Z,1.25
2017-12-26T12:13:05.689Z,1.58
2017-12-26T12:15:34.913Z,1.23
2017-12-26T12:18:04.063Z,1.35
2017-12-26T12:20:33.850Z,1.27
2017-12-26T12:23:02.998Z,1.10
2017-12-26T12:25:32.113Z,1.30
2017-12-26T12:28:02.728Z,0.95
2017-12-26T12:30:32.656Z,1.20
2017-12-26T12:33:01.807Z,1.23
2017-12-26T12:35:31.331Z,1.15
2017-12-26T12:38:00.573Z,1.20
2017-12-26T12:40:29.749Z,0.80
2017-12-26T12:42:59.044Z,1.17
2017-12-26T12:45:28.230Z,0.80
2017-12-26T12:47:59.195Z,1.15
2017-12-26T12:50:28.365Z,0.80
2017-12-26T12:53:00.564Z,1.10
2017-12-26T12:55:30.450Z,1.52
2017-12-26T12:57:59.722Z,1.40
2017-12-26T13:00:31.203Z,1.20
2017-12-26T13:03:00.898Z,1.77
2017-12-26T13:05:31.302Z,1.73
2017-12-26T13:08:00.748Z,1.15
2017-12-26T13:10:30.640Z,0.80
2017-12-26T13:12:59.766Z,1.10
2017-12-26T13:15:29.114Z,1.45
2017-12-26T13:17:59.844Z,1.10
2017-12-26T13:20:29.096Z,1.00
2017-12-26T13:22:58.270Z,1.20
2017-12-26T13:25:28.156Z,1.23
2017-12-26T13:27:57.342Z,1.52
2017-12-26T13:30:26.510Z,1.02
2017-12-26T13:32:56.404Z,1.10
2017-12-26T13:35:25.585Z,1.30
2017-12-26T13:37:55.269Z,1.40
2017-12-26T13:40:24.394Z,1.30
2017-12-26T13:42:54.672Z,1.25
2017-12-26T13:45:24.404Z,1.08
2017-12-26T13:47:53.580Z,1.40
2017-12-26T13:50:22.700Z,1.15
2017-12-26T13:52:52.143Z,1.02
2017-12-26T13:55:21.328Z,1.25
2017-12-26T13:57:50.510Z,1.50
2017-12-26T14:00:19.825Z,0.90
2017-12-26T14:02:49.755Z,1.05
2017-12-26T14:05:18.947Z,1.10
2017-12-26T14:07:49.480Z,1.45
2017-12-26T14:10:18.622Z,1.85
2017-12-26T14:12:47.950Z,1.17
2017-12-26T14:15:18.237Z,1.10
2017-12-26T14:17:47.441Z,1.50
2017-12-26T14:20:16.601Z,1.67
2017-12-26T14:22:46.208Z,1.50
2017-12-26T14:25:15.412Z,1.17
2017-12-26T14:27:44.813Z,1.17
2017-12-26T14:30:14.190Z,1.12
2017-12-26T14:32:43.345Z,0.95
2017-12-26T14:35:12.538Z,0.93
2017-12-26T14:37:42.692Z,1.05
2017-12-26T14:40:12.566Z,1.20
2017-12-26T14:42:41.743Z,1.30
2017-12-26T14:45:11.328Z,1.25
2017-12-26T14:47:40.442Z,1.62
2017-12-26T14:50:09.583Z,1.27
2017-12-26T14:52:39.052Z,1.30
2017-12-26T14:55:08.730Z,1.12
2017-12-26T14:57:37.893Z,1.35
2017-12-26T15:00:07.078Z,1.40
2017-12-26T15:02:36.247Z,1.45
2017-12-26T15:05:05.371Z,1.35
2017-12-26T15:07:34.543Z,1.00
2017-12-26T15:10:03.644Z,1.40
2017-12-26T15:12:32.812Z,1.77
2017-12-26T15:15:03.039Z,1.25
2017-12-26T15:17:32.209Z,0.93
2017-12-26T15:20:02.121Z,1.73
2017-12-26T15:22:31.306Z,2.15
2017-12-26T15:25:01.217Z,1.35
2017-12-26T15:27:30.386Z,1.10
2017-12-26T15:30:00.483Z,1.33
2017-12-26T15:32:29.624Z,1.20
2017-12-26T15:34:59.552Z,3.25
2017-12-26T15:37:29.054Z,1.12
2017-12-26T15:39:58.182Z,1.20
2017-12-26T15:42:28.098Z,1.10
2017-12-26T15:44:57.571Z,1.37
2017-12-26T15:47:26.726Z,1.30
2017-12-26T15:49:55.856Z,1.20
2017-12-26T15:52:26.522Z,2.10
2017-12-26T15:54:56.198Z,1.77
2017-12-26T15:57:25.322Z,1.40
2017-12-26T15:59:55.230Z,1.35
2017-12-26T16:02:24.330Z,1.73
2017-12-26T16:04:53.431Z,1.77
2017-12-26T16:07:22.630Z,1.92
2017-12-26T16:09:51.738Z,1.60
2017-12-26T16:12:20.965Z,1.30
2017-12-26T16:14:51.141Z,2.33
2017-12-26T16:17:20.364Z,1.58
2017-12-26T16:19:49.604Z,1.40
2017-12-26T16:22:18.881Z,2.72
2017-12-26T16:24:48.981Z,1.55
2017-12-26T16:27:18.285Z,2.30
2017-12-26T16:29:48.804Z,1.45
2017-12-26T16:32:17.992Z,1.83
2017-12-26T16:34:48.250Z,2.53
2017-12-26T16:37:17.950Z,1.80
2017-12-26T16:39:47.122Z,1.80
2017-12-26T16:42:16.361Z,2.12
2017-12-26T16:44:45.647Z,1.50
2017-12-26T16:47:15.329Z,1.60
2017-12-26T16:49:44.658Z,1.75
2017-12-26T16:52:14.446Z,2.00
2017-12-26T16:54:43.758Z,1.75
2017-12-26T16:57:13.239Z,2.15
2017-12-26T16:59:42.737Z,2.65
2017-12-26T17:02:12.967Z,2.12
2017-12-26T17:04:42.235Z,2.08
2017-12-26T17:07:11.947Z,1.55
2017-12-26T17:09:41.118Z,1.80
2017-12-26T17:12:10.235Z,1.62
2017-12-26T17:14:40.272Z,2.85
2017-12-26T17:17:09.446Z,1.62
2017-12-26T17:19:38.620Z,2.47
2017-12-26T17:22:08.112Z,2.50
2017-12-26T17:24:37.251Z,1.55
2017-12-26T17:27:06.423Z,2.20
2017-12-26T17:29:35.594Z,2.78
2017-12-26T17:32:04.740Z,1.80
2017-12-26T17:34:33.915Z,1.87
2017-12-26T17:37:03.442Z,2.17
2017-12-26T17:39:32.611Z,1.90
2017-12-26T17:42:02.503Z,2.30
2017-12-26T17:44:31.778Z,1.95
2017-12-26T17:47:00.916Z,1.83
2017-12-26T17:49:30.433Z,2.12
2017-12-26T17:52:00.266Z,2.03
2017-12-26T17:54:29.526Z,1.62
2017-12-26T17:56:58.915Z,2.25
2017-12-26T17:59:28.118Z,4.35
2017-12-26T18:01:57.469Z,1.95
2017-12-26T18:04:26.609Z,2.87
2017-12-26T18:06:55.940Z,2.33
2017-12-26T18:09:25.107Z,2.10
2017-12-26T18:11:54.280Z,2.05
2017-12-26T18:14:23.424Z,2.00
2017-12-26T18:16:56.135Z,2.20
2017-12-26T18:19:26.890Z,1.65
2017-12-26T18:21:56.111Z,2.40
2017-12-26T18:24:25.258Z,1.58
2017-12-26T18:26:55.287Z,2.28
2017-12-26T18:29:25.234Z,1.60
2017-12-26T18:31:55.505Z,2.33
2017-12-26T18:34:24.867Z,2.50
2017-12-26T18:36:54.402Z,1.83
2017-12-26T18:39:24.275Z,1.83
2017-12-26T18:41:53.560Z,2.83
2017-12-26T18:44:22.776Z,2.60
2017-12-26T18:46:52.034Z,2.42
2017-12-26T18:49:21.816Z,2.80
2017-12-26T18:51:51.017Z,2.72
2017-12-26T18:54:20.387Z,2.00
2017-12-26T18:56:50.173Z,2.92
2017-12-26T18:59:19.760Z,2.45
2017-12-26T19:01:49.000Z,2.00
2017-12-26T19:04:18.609Z,2.50
2017-12-26T19:06:47.976Z,2.45
2017-12-26T19:09:19.693Z,3.58
2017-12-26T19:11:49.018Z,3.03
2017-12-26T19:14:18.417Z,2.90
2017-12-26T19:16:48.415Z,2.65
2017-12-26T19:19:17.759Z,2.15
2017-12-26T19:21:48.255Z,2.37
2017-12-26T19:24:18.183Z,2.55
2017-12-26T19:26:47.576Z,2.00
2017-12-26T19:29:17.198Z,3.30
2017-12-26T19:31:47.499Z,2.80
2017-12-26T19:34:16.888Z,2.47
2017-12-26T19:36:47.394Z,2.95
2017-12-26T19:39:16.925Z,2.42
2017-12-26T19:41:46.399Z,2.65
2017-12-26T19:44:15.822Z,2.50
2017-12-26T19:46:46.454Z,2.90
2017-12-26T19:49:16.146Z,2.90
2017-12-26T19:51:45.735Z,2.42
2017-12-26T19:54:15.891Z,2.80
2017-12-26T19:56:45.273Z,2.60
2017-12-26T19:59:15.395Z,2.70
2017-12-26T20:01:44.939Z,3.75
2017-12-26T20:04:14.945Z,3.28
2017-12-26T20:06:44.252Z,3.53
2017-12-26T20:09:13.612Z,3.15
2017-12-26T20:11:42.879Z,3.35
2017-12-26T20:14:12.309Z,3.28
2017-12-26T20:16:42.433Z,4.10
2017-12-26T20:19:11.621Z,3.10
2017-12-26T20:21:40.780Z,3.22
2017-12-26T20:24:10.544Z,3.53
2017-12-26T20:26:39.678Z,3.20
2017-12-26T20:29:08.974Z,3.90
2017-12-26T20:31:38.113Z,3.90
2017-12-26T20:34:08.484Z,4.12
2017-12-26T20:36:37.894Z,4.45
2017-12-26T20:39:07.047Z,4.60
2017-12-26T20:41:36.973Z,4.35
2017-12-26T20:44:06.137Z,4.30
2017-12-26T20:46:35.524Z,5.50
2017-12-26T20:49:04.734Z,5.32
2017-12-26T20:51:33.842Z,5.03
2017-12-26T20:54:03.415Z,5.85
2017-12-26T20:56:33.329Z,4.97
2017-12-26T20:59:03.412Z,6.50
2017-12-26T21:01:32.582Z,6.45
2017-12-26T21:04:01.979Z,6.32
2017-12-26T21:06:31.129Z,7.57
2017-12-26T21:09:00.863Z,6.57
2017-12-26T21:11:29.985Z,6.60
2017-12-26T21:13:59.115Z,7.12
2017-12-26T21:16:28.295Z,6.95
2017-12-26T21:18:57.593Z,6.18
2017-12-26T21:21:27.594Z,6.03
2017-12-26T21:23:56.822Z,5.82
2017-12-26T21:26:26.760Z,7.18
2017-12-26T21:28:55.903Z,6.05
2017-12-26T21:31:25.058Z,6.75
2017-12-26T21:33:54.979Z,7.22
2017-12-26T21:36:24.511Z,6.87
2017-12-26T21:38:54.698Z,7.20
2017-12-26T21:41:23.977Z,6.53
2017-12-26T21:43:53.341Z,5.82
2017-12-26T21:46:22.859Z,6.65
2017-12-26T21:48:52.168Z,6.97
2017-12-26T21:51:21.467Z,5.80
2017-12-26T21:53:50.852Z,6.03
2017-12-26T21:56:20.348Z,5.22
2017-12-26T21:58:49.649Z,9.15
2017-12-26T22:01:18.902Z,6.65
2017-12-26T22:03:48.480Z,5.35
2017-12-26T22:06:18.565Z,5.80
2017-12-26T22:08:47.914Z,5.45
2017-12-26T22:11:17.496Z,5.87
2017-12-26T22:13:46.815Z,6.12
2017-12-26T22:16:17.045Z,5.65
2017-12-26T22:18:46.396Z,5.85
2017-12-26T22:21:15.681Z,5.95
2017-12-26T22:23:45.954Z,5.75
2017-12-26T22:26:15.467Z,5.25
2017-12-26T22:28:45.477Z,5.80
2017-12-26T22:31:15.370Z,4.65
2017-12-26T22:33:45.071Z,6.07
2017-12-26T22:36:14.842Z,6.25
2017-12-26T22:38:45.138Z,5.30
2017-12-26T22:41:15.783Z,6.35
2017-12-26T22:43:44.979Z,5.80
2017-12-26T22:46:14.356Z,6.43
2017-12-26T22:48:43.600Z,7.10
2017-12-26T22:51:13.577Z,6.32
2017-12-26T22:53:43.291Z,7.53
2017-12-26T22:56:12.464Z,6.75
2017-12-26T22:58:41.636Z,6.75
2017-12-26T23:01:10.835Z,5.85
2017-12-26T23:03:39.938Z,6.10
2017-12-26T23:06:09.073Z,7.45
2017-12-26T23:08:38.245Z,7.53
2017-12-26T23:11:07.355Z,6.62
2017-12-26T23:13:36.507Z,5.93
2017-12-26T23:16:11.068Z,6.20
2017-12-26T23:18:40.194Z,6.43
2017-12-26T23:21:10.108Z,6.62
2017-12-26T23:23:45.624Z,5.80
2017-12-26T23:26:20.358Z,7.70
2017-12-26T23:28:55.630Z,6.28
2017-12-26T23:31:30.405Z,6.85
2017-12-26T23:34:05.775Z,7.12
2017-12-26T23:36:40.389Z,5.75
2017-12-26T23:39:15.594Z,7.03
2017-12-26T23:41:50.425Z,6.80
2017-12-26T23:44:25.317Z,7.50
2017-12-26T23:47:00.038Z,6.72
2017-12-26T23:49:35.115Z,6.75
2017-12-26T23:52:09.778Z,6.12
2017-12-26T23:54:44.524Z,6.22
2017-12-26T23:57:19.151Z,7.03
2017-12-26T23:59:54.710Z,6.12
